Time;durP1;ratioP1;P1;durP2;ratioP2;P2;SDS_P1;SDS_P2;PMS_P1;PMS_P2;Temp;Humidity;BMP_temperature;BMP_pressure;BME280_temperature;BME280_humidity;BME280_pressure;Samples;Min_cycle;Max_cycle;Signal;HPM_P1;HPM_P2
2022/07/13 00:00:45;;;;;;;0.30;0.30;;;25.10;44.70;;;;;;5047043;28;20102;-63
2022/07/13 00:03:12;;;;;;;0.30;0.25;;;25.10;44.80;;;;;;5047676;28;20049;-63
2022/07/13 00:05:39;;;;;;;0.30;0.30;;;25.10;44.80;;;;;;5046179;28;20044;-64
2022/07/13 00:08:06;;;;;;;0.32;0.32;;;25.10;44.80;;;;;;5045707;28;20053;-64
2022/07/13 00:10:33;;;;;;;0.52;0.52;;;25.10;44.80;;;;;;5045823;28;20513;-63
2022/07/13 00:13:01;;;;;;;0.38;0.30;;;25.10;44.80;;;;;;5047293;28;20264;-63
2022/07/13 00:15:28;;;;;;;1.48;0.28;;;25.10;44.80;;;;;;5046825;28;20560;-61
2022/07/13 00:17:55;;;;;;;0.40;0.40;;;25.10;44.80;;;;;;5047371;28;20045;-61
2022/07/13 00:20:22;;;;;;;0.65;0.30;;;25.10;44.80;;;;;;5045760;28;20614;-61
2022/07/13 00:22:50;;;;;;;0.30;0.30;;;25.10;44.80;;;;;;5046910;28;20111;-61
2022/07/13 00:25:18;;;;;;;0.35;0.30;;;25.10;44.80;;;;;;5045650;28;20052;-61
2022/07/13 00:27:45;;;;;;;0.30;0.30;;;25.10;44.80;;;;;;5045947;28;20076;-61
2022/07/13 00:30:12;;;;;;;0.35;0.32;;;25.10;44.80;;;;;;5047860;28;20048;-61
2022/07/13 00:32:40;;;;;;;0.38;0.32;;;25.10;44.80;;;;;;5046931;28;20072;-62
2022/07/13 00:35:07;;;;;;;0.10;0.10;;;25.10;44.80;;;;;;5028842;28;20049;-62
2022/07/13 00:37:34;;;;;;;0.40;0.40;;;25.10;44.80;;;;;;5046829;28;20490;-61
2022/07/13 00:40:01;;;;;;;0.30;0.30;;;25.10;44.80;;;;;;5045921;28;20072;-61
2022/07/13 00:42:29;;;;;;;0.40;0.40;;;25.10;44.80;;;;;;5046481;28;20402;-61
2022/07/13 00:44:56;;;;;;;0.20;0.20;;;25.10;45.00;;;;;;5047090;28;20075;-61
2022/07/13 00:47:28;;;;;;;0.30;0.30;;;25.10;45.40;;;;;;5044674;28;20494;-61
2022/07/13 00:49:56;;;;;;;0.38;0.30;;;25.10;44.90;;;;;;5045666;28;20098;-61
2022/07/13 00:52:24;;;;;;;0.55;0.30;;;25.10;44.90;;;;;;5046332;28;20114;-61
2022/07/13 00:54:51;;;;;;;0.40;0.40;;;25.10;44.90;;;;;;5046531;28;20102;-61
2022/07/13 00:57:19;;;;;;;0.40;0.40;;;25.10;44.90;;;;;;5045849;28;20126;-61
2022/07/13 00:59:47;;;;;;;0.30;0.30;;;25.10;44.90;;;;;;5045459;28;20048;-61
2022/07/13 01:02:14;;;;;;;1.20;0.45;;;25.10;44.90;;;;;;5046502;28;20049;-61
2022/07/13 01:04:41;;;;;;;0.40;0.40;;;25.10;44.90;;;;;;5045024;28;20052;-61
2022/07/13 01:07:09;;;;;;;0.30;0.30;;;25.10;44.90;;;;;;5046715;28;20401;-61
2022/07/13 01:09:36;;;;;;;0.22;0.22;;;25.00;44.90;;;;;;5046197;28;20497;-61
2022/07/13 01:12:05;;;;;;;0.55;0.32;;;25.10;44.90;;;;;;5045707;28;20041;-61
2022/07/13 01:14:35;;;;;;;0.20;0.20;;;25.10;45.00;;;;;;5045103;28;20495;-61
2022/07/13 01:17:02;;;;;;;0.30;0.30;;;25.10;45.00;;;;;;5046014;28;20204;-61
2022/07/13 01:19:32;;;;;;;0.30;0.30;;;25.00;44.90;;;;;;5045051;28;20079;-61
2022/07/13 01:22:02;;;;;;;0.20;0.20;;;25.00;45.00;;;;;;5045645;28;20347;-61
2022/07/13 01:24:31;;;;;;;0.47;0.30;;;25.00;45.00;;;;;;5045924;28;20064;-61
2022/07/13 01:26:59;;;;;;;2.10;0.40;;;25.10;45.00;;;;;;5045049;28;20111;-61
2022/07/13 01:29:27;;;;;;;1.58;0.20;;;25.00;45.00;;;;;;5046475;28;20135;-61
2022/07/13 01:31:59;;;;;;;0.30;0.30;;;25.00;45.00;;;;;;5044528;28;20045;-62
2022/07/13 01:34:27;;;;;;;0.20;0.20;;;25.00;45.00;;;;;;5045255;28;20465;-61
2022/07/13 01:36:55;;;;;;;1.23;0.32;;;25.00;45.00;;;;;;5045465;28;20060;-62
2022/07/13 01:39:22;;;;;;;0.25;0.25;;;25.00;45.00;;;;;;5046146;28;20061;-64
2022/07/13 01:41:49;;;;;;;0.20;0.20;;;25.00;45.00;;;;;;5045531;28;20049;-62
2022/07/13 01:44:17;;;;;;;0.28;0.20;;;25.00;45.00;;;;;;5044597;28;20110;-62
2022/07/13 01:46:45;;;;;;;0.30;0.20;;;25.00;45.00;;;;;;5045224;28;20103;-62
2022/07/13 01:49:12;;;;;;;0.25;0.25;;;25.00;45.00;;;;;;5045343;28;20052;-61
2022/07/13 01:51:40;;;;;;;0.43;0.30;;;25.00;45.00;;;;;;5045338;28;20048;-63
2022/07/13 01:54:07;;;;;;;0.40;0.40;;;25.00;44.90;;;;;;5045363;28;20049;-62
2022/07/13 01:56:34;;;;;;;0.52;0.20;;;25.00;44.90;;;;;;5044728;28;20489;-62
2022/07/13 01:59:02;;;;;;;0.40;0.40;;;25.00;44.90;;;;;;5044073;28;20381;-62
2022/07/13 02:01:29;;;;;;;1.40;0.28;;;25.00;44.90;;;;;;5045438;28;20041;-62
2022/07/13 02:03:56;;;;;;;0.30;0.30;;;25.00;44.90;;;;;;5044133;28;20073;-62
2022/07/13 02:06:24;;;;;;;0.30;0.30;;;25.00;44.90;;;;;;5045505;28;20036;-62
2022/07/13 02:08:51;;;;;;;0.20;0.20;;;25.00;44.90;;;;;;5045375;28;20325;-62
2022/07/13 02:11:18;;;;;;;0.30;0.30;;;25.00;45.50;;;;;;5045318;28;20296;-62
2022/07/13 02:13:46;;;;;;;0.40;0.20;;;25.00;44.90;;;;;;5045381;28;20041;-62
2022/07/13 02:16:14;;;;;;;0.22;0.20;;;25.00;45.00;;;;;;5045189;28;20095;-62
2022/07/13 02:18:42;;;;;;;0.17;0.17;;;25.00;44.90;;;;;;5045157;28;20053;-62
2022/07/13 02:21:11;;;;;;;0.28;0.28;;;25.00;45.00;;;;;;5044729;28;20044;-62
2022/07/13 02:23:38;;;;;;;0.30;0.30;;;25.00;45.00;;;;;;5043185;28;20273;-62
2022/07/13 02:26:06;;;;;;;0.20;0.20;;;25.00;45.00;;;;;;5045539;28;20090;-62
2022/07/13 02:28:33;;;;;;;0.22;0.22;;;25.00;45.00;;;;;;5044856;28;20094;-62
2022/07/13 02:31:00;;;;;;;0.30;0.30;;;25.00;45.00;;;;;;5044409;28;20076;-62
2022/07/13 02:33:28;;;;;;;1.75;0.35;;;25.00;45.00;;;;;;5045254;28;20045;-62
2022/07/13 02:35:55;;;;;;;0.20;0.20;;;24.90;45.00;;;;;;5044428;28;20460;-62
2022/07/13 02:38:22;;;;;;;0.30;0.30;;;24.90;45.00;;;;;;5043992;28;20110;-62
2022/07/13 02:40:49;;;;;;;0.30;0.30;;;25.00;45.00;;;;;;5044776;28;20053;-62
2022/07/13 02:43:16;;;;;;;0.20;0.20;;;24.90;45.00;;;;;;5044954;28;20041;-62
2022/07/13 02:45:43;;;;;;;0.35;0.20;;;24.90;45.00;;;;;;5045052;28;20115;-62
2022/07/13 02:48:11;;;;;;;0.10;0.10;;;24.90;45.00;;;;;;5045109;28;20480;-62
2022/07/13 02:50:38;;;;;;;0.10;0.10;;;24.90;45.00;;;;;;5045135;28;20102;-62
2022/07/13 02:53:05;;;;;;;0.45;0.40;;;24.90;45.00;;;;;;5044568;28;20485;-62
2022/07/13 02:55:32;;;;;;;0.20;0.20;;;24.90;45.00;;;;;;5044379;28;20061;-62
2022/07/13 02:58:00;;;;;;;0.20;0.20;;;24.90;45.00;;;;;;5044810;28;20049;-62
2022/07/13 03:00:27;;;;;;;0.40;0.40;;;24.90;45.00;;;;;;5044345;28;20095;-62
2022/07/13 03:02:54;;;;;;;0.30;0.30;;;24.90;45.00;;;;;;5043098;28;20440;-62
2022/07/13 03:05:23;;;;;;;0.43;0.20;;;24.90;45.00;;;;;;5044590;28;20056;-62
2022/07/13 03:07:51;;;;;;;0.20;0.20;;;24.90;45.10;;;;;;5044589;28;20044;-62
2022/07/13 03:10:18;;;;;;;0.20;0.20;;;24.90;45.10;;;;;;5044291;28;20052;-62
2022/07/13 03:12:46;;;;;;;0.30;0.20;;;24.90;45.10;;;;;;5044201;28;20122;-62
2022/07/13 03:15:13;;;;;;;0.55;0.30;;;24.90;45.10;;;;;;5045244;28;20049;-62
2022/07/13 03:17:41;;;;;;;0.30;0.25;;;24.90;45.10;;;;;;5044240;28;20438;-62
2022/07/13 03:20:09;;;;;;;0.57;0.20;;;24.90;45.00;;;;;;5043905;28;20048;-62
2022/07/13 03:22:36;;;;;;;0.30;0.30;;;24.90;45.00;;;;;;5044226;28;20041;-62
2022/07/13 03:25:05;;;;;;;0.30;0.30;;;24.90;45.00;;;;;;5044248;28;20049;-62
2022/07/13 03:27:33;;;;;;;0.30;0.20;;;24.90;45.00;;;;;;5043990;28;20044;-62
2022/07/13 03:30:00;;;;;;;0.13;0.13;;;24.90;45.00;;;;;;5048331;28;20494;-62
2022/07/13 03:32:27;;;;;;;0.25;0.25;;;24.90;44.90;;;;;;5044359;28;20508;-62
2022/07/13 03:34:55;;;;;;;0.75;0.40;;;25.00;45.00;;;;;;5046931;28;20634;-62
2022/07/13 03:37:23;;;;;;;0.55;0.45;;;25.00;45.00;;;;;;5046880;28;20053;-62
2022/07/13 03:39:50;;;;;;;0.20;0.20;;;25.00;44.90;;;;;;5046949;28;20505;-62
2022/07/13 03:42:17;;;;;;;0.30;0.30;;;25.00;44.90;;;;;;5047119;28;20595;-62
2022/07/13 03:44:45;;;;;;;0.20;0.20;;;25.00;44.80;;;;;;5040995;28;20103;-62
2022/07/13 03:47:13;;;;;;;0.22;0.22;;;25.00;44.80;;;;;;5040813;28;20049;-62
2022/07/13 03:49:40;;;;;;;0.43;0.25;;;25.00;44.80;;;;;;5041692;28;20448;-62
2022/07/13 03:52:07;;;;;;;0.30;0.30;;;25.10;45.40;;;;;;5047019;28;20441;-62
2022/07/13 03:54:34;;;;;;;0.70;0.20;;;25.00;44.70;;;;;;5047439;28;20102;-62
2022/07/13 03:57:01;;;;;;;0.22;0.22;;;25.10;44.80;;;;;;5046141;28;20041;-62
2022/07/13 03:59:29;;;;;;;1.23;0.40;;;25.10;45.30;;;;;;5047708;28;20126;-62
2022/07/13 04:01:56;;;;;;;0.15;0.15;;;25.10;44.70;;;;;;5045847;28;20045;-62
2022/07/13 04:04:23;;;;;;;0.22;0.20;;;25.10;44.70;;;;;;5047876;28;20580;-62
2022/07/13 04:06:50;;;;;;;0.20;0.20;;;25.10;44.70;;;;;;5046604;28;20490;-62
2022/07/13 04:09:17;;;;;;;0.10;0.10;;;25.10;44.70;;;;;;5048028;28;20045;-62
2022/07/13 04:11:45;;;;;;;0.20;0.20;;;25.10;44.60;;;;;;5047303;28;20118;-62
2022/07/13 04:14:12;;;;;;;0.25;0.20;;;25.10;44.60;;;;;;5046872;28;20049;-62
2022/07/13 04:16:39;;;;;;;0.70;0.22;;;25.10;44.60;;;;;;5046245;28;20075;-62
2022/07/13 04:19:06;;;;;;;0.20;0.20;;;25.10;44.60;;;;;;5047019;28;20045;-62
2022/07/13 04:21:33;;;;;;;0.45;0.20;;;25.10;44.60;;;;;;5047951;28;20095;-62
2022/07/13 04:24:01;;;;;;;0.13;0.13;;;25.10;44.50;;;;;;5046828;28;20494;-62
2022/07/13 04:26:28;;;;;;;0.25;0.20;;;25.20;44.60;;;;;;5046552;28;20472;-62
2022/07/13 04:28:55;;;;;;;0.30;0.20;;;25.10;44.50;;;;;;5046963;28;20045;-62
2022/07/13 04:31:22;;;;;;;0.25;0.25;;;25.20;44.50;;;;;;5046685;28;20099;-62
2022/07/13 04:33:50;;;;;;;0.40;0.20;;;25.20;44.50;;;;;;5046888;28;20041;-61
2022/07/13 04:36:17;;;;;;;0.20;0.20;;;25.20;44.50;;;;;;5045776;28;20286;-62
2022/07/13 04:38:44;;;;;;;0.90;0.28;;;25.20;44.40;;;;;;5045970;28;20052;-61
2022/07/13 04:41:11;;;;;;;0.20;0.20;;;25.20;44.40;;;;;;5045352;28;20059;-61
2022/07/13 04:43:38;;;;;;;0.68;0.30;;;25.30;44.50;;;;;;5047210;28;20044;-62
2022/07/13 04:46:06;;;;;;;0.10;0.10;;;25.30;45.00;;;;;;5044268;28;20045;-61
2022/07/13 04:48:33;;;;;;;0.20;0.20;;;25.30;44.40;;;;;;5046736;28;20456;-62
2022/07/13 04:51:00;;;;;;;0.38;0.30;;;25.30;44.40;;;;;;5046352;28;20037;-61
2022/07/13 04:53:27;;;;;;;0.40;0.40;;;25.30;44.30;;;;;;5046288;28;20114;-61
2022/07/13 04:55:54;;;;;;;0.20;0.20;;;25.30;44.30;;;;;;5046355;28;20091;-61
2022/07/13 04:58:21;;;;;;;0.30;0.30;;;25.30;44.30;;;;;;5046859;28;20561;-63
2022/07/13 05:00:49;;;;;;;0.32;0.32;;;25.40;44.30;;;;;;5028487;28;20053;-62
2022/07/13 05:03:36;;;;;;;0.20;0.20;;;25.40;44.20;;;;;;5045187;28;20045;-61
2022/07/13 05:06:04;;;;;;;0.52;0.40;;;25.40;44.20;;;;;;5046839;28;20049;-62
2022/07/13 05:08:31;;;;;;;0.30;0.30;;;25.40;44.20;;;;;;5044651;28;20456;-62
2022/07/13 05:10:58;;;;;;;0.10;0.10;;;25.40;44.20;;;;;;5045829;28;20045;-61
2022/07/13 05:13:25;;;;;;;0.30;0.30;;;25.30;44.20;;;;;;5032391;28;20517;-61
2022/07/13 05:15:53;;;;;;;0.30;0.30;;;25.20;44.30;;;;;;5039040;28;20044;-61
2022/07/13 05:18:20;;;;;;;0.40;0.40;;;25.10;44.50;;;;;;5041950;28;20071;-61
2022/07/13 05:20:47;;;;;;;0.32;0.32;;;24.90;44.90;;;;;;5046718;28;20061;-61
2022/07/13 05:23:15;;;;;;;0.45;0.45;;;24.70;45.30;;;;;;5045627;28;20045;-62
2022/07/13 05:25:42;;;;;;;3.30;1.30;;;24.40;45.90;;;;;;5042244;28;20057;-72
2022/07/13 05:28:10;;;;;;;1.77;1.25;;;24.00;46.20;;;;;;5028452;28;20383;-71
2022/07/13 05:30:37;;;;;;;4.00;1.73;;;23.50;46.60;;;;;;5040870;28;20107;-73
2022/07/13 05:33:05;;;;;;;2.10;1.40;;;23.00;47.30;;;;;;5054734;28;20454;-75
2022/07/13 05:35:39;;;;;;;3.08;1.50;;;22.50;48.00;;;;;;5051873;28;20179;-74
2022/07/13 05:38:10;;;;;;;2.63;1.40;;;22.00;48.30;;;;;;5046508;28;20037;-77
2022/07/13 05:40:41;;;;;;;3.63;1.17;;;21.60;49.40;;;;;;5039887;28;20431;-74
2022/07/13 05:43:12;;;;;;;1.08;1.08;;;21.30;49.60;;;;;;5038869;28;20052;-74
2022/07/13 05:45:40;;;;;;;5.47;1.52;;;21.00;49.70;;;;;;5039327;28;20060;-74
2022/07/13 05:48:08;;;;;;;2.42;1.50;;;20.70;50.80;;;;;;5041467;28;20049;-73
2022/07/13 05:50:39;;;;;;;2.00;1.75;;;20.40;51.10;;;;;;5032622;28;20068;-72
2022/07/13 05:53:06;;;;;;;1.60;1.50;;;20.30;53.00;;;;;;5043990;28;20048;-72
2022/07/13 05:55:33;;;;;;;1.75;1.48;;;20.10;53.70;;;;;;5048188;28;20056;-72
2022/07/13 05:58:01;;;;;;;1.48;1.38;;;20.10;52.90;;;;;;5040256;28;20553;-72
2022/07/13 06:00:28;;;;;;;2.95;1.65;;;20.00;53.10;;;;;;5036526;28;20512;-72
2022/07/13 06:02:55;;;;;;;2.75;1.42;;;19.80;52.90;;;;;;5041201;28;20124;-72
2022/07/13 06:05:23;;;;;;;3.92;1.70;;;19.80;52.60;;;;;;5044287;28;20139;-73
2022/07/13 06:07:50;;;;;;;1.30;1.20;;;19.70;53.20;;;;;;5042958;28;20383;-73
2022/07/13 06:10:18;;;;;;;1.77;1.67;;;19.60;53.30;;;;;;5041226;28;20057;-71
2022/07/13 06:12:45;;;;;;;3.30;1.58;;;19.50;53.90;;;;;;5045539;28;20159;-68
2022/07/13 06:15:12;;;;;;;1.95;1.70;;;19.40;54.70;;;;;;5043473;28;20056;-70
2022/07/13 06:17:39;;;;;;;2.25;2.08;;;19.30;54.70;;;;;;5043070;28;20482;-60
2022/07/13 06:20:07;;;;;;;3.03;1.50;;;19.30;54.50;;;;;;5043277;28;20040;-60
2022/07/13 06:22:34;;;;;;;1.40;1.30;;;19.20;53.80;;;;;;5046585;28;20048;-60
2022/07/13 06:25:05;;;;;;;1.55;1.45;;;19.20;53.90;;;;;;5073060;28;20477;-60
2022/07/13 06:27:32;;;;;;;2.67;1.63;;;19.10;54.20;;;;;;5045060;28;20121;-61
2022/07/13 06:29:59;;;;;;;3.65;1.17;;;19.10;54.70;;;;;;5043625;28;20091;-60
2022/07/13 06:32:27;;;;;;;3.15;1.35;;;19.10;54.30;;;;;;5026145;28;20095;-60
2022/07/13 06:34:54;;;;;;;2.88;1.52;;;19.00;54.40;;;;;;5042491;28;20053;-59
2022/07/13 06:37:27;;;;;;;5.85;1.23;;;19.00;54.10;;;;;;5041158;28;20048;-60
2022/07/13 06:40:12;;;;;;;2.42;1.40;;;19.00;54.80;;;;;;5059478;28;20045;-61
2022/07/13 06:42:44;;;;;;;1.15;1.08;;;19.00;54.10;;;;;;5045700;28;20046;-59
2022/07/13 06:45:12;;;;;;;4.70;1.83;;;19.00;54.60;;;;;;5042201;28;20053;-60
2022/07/13 06:47:39;;;;;;;3.95;2.08;;;19.00;54.20;;;;;;5040234;28;20111;-60
2022/07/13 06:50:07;;;;;;;3.67;1.40;;;19.10;54.00;;;;;;5042106;28;20057;-58
2022/07/13 06:52:34;;;;;;;5.57;1.42;;;19.10;53.90;;;;;;5040238;28;20045;-59
2022/07/13 06:55:02;;;;;;;1.85;1.45;;;19.10;53.60;;;;;;5040228;28;20045;-60
2022/07/13 06:57:30;;;;;;;3.13;1.52;;;19.10;53.90;;;;;;5046993;28;20060;-59
2022/07/13 06:59:58;;;;;;;1.25;1.15;;;19.10;54.20;;;;;;5042455;28;20044;-60
2022/07/13 07:02:25;;;;;;;1.73;1.40;;;19.20;54.40;;;;;;5038810;28;20541;-60
2022/07/13 07:04:54;;;;;;;1.30;1.10;;;19.20;54.10;;;;;;5038392;28;21790;-60
2022/07/13 07:07:22;;;;;;;1.20;1.20;;;19.20;53.20;;;;;;5043723;28;20126;-59
2022/07/13 07:09:49;;;;;;;2.55;1.42;;;19.30;53.70;;;;;;5050943;28;20109;-59
2022/07/13 07:12:16;;;;;;;1.50;1.20;;;19.30;53.80;;;;;;5040596;28;20094;-59
2022/07/13 07:14:44;;;;;;;1.63;1.38;;;19.30;53.50;;;;;;5043054;28;20052;-61
2022/07/13 07:17:11;;;;;;;2.90;1.45;;;19.40;53.20;;;;;;5049175;28;20049;-61
2022/07/13 07:19:39;;;;;;;4.03;1.30;;;19.40;53.00;;;;;;5035070;28;20063;-61
2022/07/13 07:22:06;;;;;;;1.45;1.10;;;19.50;52.80;;;;;;5047807;28;20076;-61
2022/07/13 07:24:33;;;;;;;1.85;1.33;;;19.50;53.00;;;;;;5043040;28;20502;-60
2022/07/13 07:27:02;;;;;;;1.38;1.27;;;19.50;52.90;;;;;;5045559;28;20049;-60
2022/07/13 07:29:29;;;;;;;3.28;1.00;;;19.60;52.50;;;;;;5044843;28;20048;-59
2022/07/13 07:31:58;;;;;;;1.10;1.00;;;19.60;52.70;;;;;;5044507;28;20092;-60
2022/07/13 07:34:30;;;;;;;1.83;1.30;;;19.70;52.50;;;;;;5037314;28;20067;-60
2022/07/13 07:36:57;;;;;;;1.20;1.10;;;19.70;52.10;;;;;;5039993;28;20100;-60
2022/07/13 07:39:25;;;;;;;5.72;1.42;;;19.70;52.20;;;;;;5044883;28;20448;-61
2022/07/13 07:41:53;;;;;;;3.45;1.00;;;19.70;52.20;;;;;;5039913;28;20057;-59
2022/07/13 07:44:20;;;;;;;2.53;0.90;;;19.80;52.30;;;;;;5045183;28;20099;-62
2022/07/13 07:46:53;;;;;;;3.90;1.02;;;19.90;52.10;;;;;;5048725;28;20059;-61
2022/07/13 07:49:20;;;;;;;1.00;1.00;;;19.80;51.80;;;;;;5040604;28;20045;-61
2022/07/13 07:51:48;;;;;;;0.88;0.88;;;19.90;51.70;;;;;;5049184;28;20490;-61
2022/07/13 07:54:35;;;;;;;1.52;1.17;;;19.90;51.90;;;;;;5041660;28;20045;-61
2022/07/13 07:57:02;;;;;;;3.28;1.30;;;19.90;51.80;;;;;;5044653;28;20068;-60
2022/07/13 07:59:30;;;;;;;0.90;0.90;;;19.90;52.00;;;;;;5049067;28;20052;-60
2022/07/13 08:01:59;;;;;;;6.85;1.55;;;19.90;51.70;;;;;;5040962;28;20502;-60
2022/07/13 08:04:27;;;;;;;0.90;0.90;;;19.90;51.40;;;;;;5040889;28;20726;-60
2022/07/13 08:06:54;;;;;;;1.17;1.00;;;19.90;51.80;;;;;;5041298;28;20107;-61
2022/07/13 08:09:21;;;;;;;0.80;0.80;;;19.90;52.20;;;;;;5037072;28;20057;-61
2022/07/13 08:11:48;;;;;;;0.98;0.70;;;19.90;52.40;;;;;;5042937;28;20057;-60
2022/07/13 08:14:15;;;;;;;1.35;1.20;;;19.90;52.80;;;;;;5044391;28;20040;-60
2022/07/13 08:16:43;;;;;;;2.15;0.90;;;19.80;52.90;;;;;;5039661;28;20102;-60
2022/07/13 08:19:11;;;;;;;1.17;0.90;;;19.80;53.20;;;;;;5042081;28;20045;-59
2022/07/13 08:21:58;;;;;;;0.70;0.63;;;19.80;53.40;;;;;;5042741;28;20050;-60
2022/07/13 08:24:25;;;;;;;0.77;0.77;;;19.80;53.50;;;;;;5046829;28;20445;-61
2022/07/13 08:26:54;;;;;;;2.00;0.90;;;19.80;53.70;;;;;;5073407;28;20053;-60
2022/07/13 08:29:21;;;;;;;0.75;0.75;;;19.80;53.80;;;;;;5020284;28;20045;-60
2022/07/13 08:31:48;;;;;;;0.88;0.88;;;19.80;53.80;;;;;;5040205;28;20102;-59
2022/07/13 08:39:50;;;;;;;1.52;0.75;;;19.80;54.00;;;;;;5052396;28;20405;-59
2022/07/13 08:42:17;;;;;;;1.27;1.10;;;19.80;54.00;;;;;;5041326;28;20099;-59
2022/07/13 08:44:45;;;;;;;0.77;0.52;;;19.80;53.90;;;;;;5037821;28;20110;-60
2022/07/13 08:47:13;;;;;;;0.77;0.73;;;19.80;53.90;;;;;;5035177;28;20049;-59
2022/07/13 08:49:41;;;;;;;2.17;0.95;;;19.80;53.90;;;;;;5043872;28;20047;-60
2022/07/13 08:52:09;;;;;;;0.60;0.60;;;19.70;53.90;;;;;;5039131;28;20048;-59
2022/07/13 08:54:37;;;;;;;0.85;0.73;;;19.70;53.90;;;;;;5050146;28;20465;-59
2022/07/13 08:57:04;;;;;;;1.10;0.90;;;19.70;53.90;;;;;;5041941;28;20044;-59
2022/07/13 08:59:31;;;;;;;3.28;0.80;;;19.70;54.10;;;;;;5042937;28;20114;-60
2022/07/13 09:01:58;;;;;;;0.68;0.68;;;19.70;54.10;;;;;;5042790;28;20059;-62
2022/07/13 09:04:26;;;;;;;1.15;0.82;;;19.70;54.20;;;;;;5041844;28;20083;-62
2022/07/13 09:06:56;;;;;;;2.15;0.95;;;19.70;54.10;;;;;;5033824;28;20505;-61
2022/07/13 09:09:36;;;;;;;1.27;0.98;;;19.80;54.20;;;;;;5041450;28;20513;-62
2022/07/13 09:12:25;;;;;;;0.70;0.60;;;19.80;54.20;;;;;;5039844;28;20045;-61
2022/07/13 09:14:56;;;;;;;1.23;0.82;;;19.80;54.20;;;;;;5032969;28;20045;-59
2022/07/13 09:17:36;;;;;;;1.15;0.70;;;19.80;54.70;;;;;;5033937;28;21722;-59
2022/07/13 09:20:17;;;;;;;1.08;0.60;;;19.80;54.30;;;;;;5037219;28;20057;-60
2022/07/13 09:22:56;;;;;;;0.80;0.70;;;19.80;54.20;;;;;;5040106;28;20468;-59
2022/07/13 09:25:26;;;;;;;0.70;0.70;;;19.90;54.30;;;;;;5040919;28;20057;-59
2022/07/13 09:27:54;;;;;;;0.70;0.70;;;19.90;54.20;;;;;;5036050;28;20297;-60
2022/07/13 09:30:26;;;;;;;1.10;0.60;;;19.90;54.30;;;;;;5038680;28;20063;-58
2022/07/13 09:32:56;;;;;;;0.68;0.63;;;19.90;54.10;;;;;;5043323;28;20048;-58
2022/07/13 09:35:49;;;;;;;0.82;0.50;;;20.00;54.10;;;;;;5048010;28;20048;-61
2022/07/13 09:38:31;;;;;;;4.13;0.75;;;20.00;54.20;;;;;;5046114;28;20693;-61
2022/07/13 09:41:23;;;;;;;0.80;0.80;;;20.00;53.90;;;;;;5039483;28;20419;-60
2022/07/13 09:47:00;;;;;;;0.60;0.60;;;20.10;54.10;;;;;;5039575;28;20057;-60
2022/07/13 09:49:42;;;;;;;2.38;0.82;;;20.10;54.10;;;;;;5031992;28;20536;-57
2022/07/13 09:52:17;;;;;;;0.50;0.50;;;20.10;54.30;;;;;;5045206;28;20045;-57
2022/07/13 09:54:51;;;;;;;3.08;0.93;;;20.20;54.50;;;;;;5041603;28;20045;-59
2022/07/13 09:57:23;;;;;;;0.70;0.70;;;20.20;54.10;;;;;;5041031;28;20053;-59
2022/07/13 09:59:51;;;;;;;1.08;0.50;;;20.20;53.60;;;;;;5041807;28;20055;-59
2022/07/13 10:02:20;;;;;;;0.80;0.80;;;20.20;53.30;;;;;;5041797;28;20700;-59
2022/07/13 10:04:49;;;;;;;1.05;0.70;;;20.20;52.90;;;;;;5042944;28;20128;-59
2022/07/13 10:07:18;;;;;;;1.30;0.70;;;20.20;52.60;;;;;;5045530;28;20144;-59
2022/07/13 10:09:46;;;;;;;0.77;0.60;;;20.10;52.60;;;;;;5044910;28;20045;-60
2022/07/13 10:12:14;;;;;;;3.13;0.32;;;20.10;52.40;;;;;;5041376;28;20041;-61
2022/07/13 10:14:41;;;;;;;0.85;0.60;;;20.10;52.40;;;;;;5044305;28;20053;-61
2022/07/13 10:17:14;;;;;;;2.03;0.73;;;20.00;52.30;;;;;;5041906;28;20055;-61
2022/07/13 10:19:57;;;;;;;0.63;0.40;;;20.00;52.10;;;;;;5046026;28;20758;-61
2022/07/13 10:22:30;;;;;;;0.70;0.70;;;19.90;52.40;;;;;;5046529;28;20131;-61
2022/07/13 10:24:59;;;;;;;0.90;0.90;;;19.90;52.90;;;;;;5044808;28;20047;-61
2022/07/13 10:27:29;;;;;;;3.78;0.90;;;20.00;53.10;;;;;;5038446;28;20041;-61
2022/07/13 10:30:06;;;;;;;0.73;0.60;;;20.00;52.90;;;;;;5037747;28;20091;-60
2022/07/13 10:32:36;;;;;;;0.50;0.50;;;20.00;52.80;;;;;;5041255;28;20040;-61
2022/07/13 10:35:10;;;;;;;0.30;0.30;;;20.00;52.60;;;;;;5043202;28;20057;-61
2022/07/13 10:38:17;;;;;;;0.68;0.40;;;20.00;52.40;;;;;;5043809;28;20048;-62
2022/07/13 10:40:44;;;;;;;1.45;1.05;;;19.90;52.30;;;;;;5046320;28;20056;-61
2022/07/13 10:43:16;;;;;;;1.55;0.68;;;19.90;52.30;;;;;;5042473;28;20056;-61
2022/07/13 10:45:45;;;;;;;0.50;0.50;;;19.90;52.30;;;;;;5051456;28;20675;-61
2022/07/13 10:48:42;;;;;;;0.57;0.50;;;19.90;52.30;;;;;;5045100;28;20041;-61
2022/07/13 10:51:17;;;;;;;0.57;0.57;;;19.80;52.10;;;;;;5053900;28;20057;-61
2022/07/13 10:54:05;;;;;;;0.50;0.35;;;19.80;52.20;;;;;;5046175;28;20041;-61
2022/07/13 10:56:32;;;;;;;0.80;0.75;;;19.80;52.20;;;;;;5044416;28;20099;-61
2022/07/13 10:59:01;;;;;;;0.47;0.40;;;19.70;52.30;;;;;;5041289;28;20713;-61
2022/07/13 11:01:37;;;;;;;0.90;0.47;;;19.70;52.40;;;;;;5045986;28;20045;-62
2022/07/13 11:04:07;;;;;;;0.60;0.60;;;19.70;52.50;;;;;;5042137;28;20141;-62
2022/07/13 11:06:35;;;;;;;0.98;0.60;;;19.70;52.40;;;;;;5042827;28;20057;-61
2022/07/13 11:09:20;;;;;;;1.75;0.80;;;19.70;52.30;;;;;;5041440;28;20060;-61
2022/07/13 11:11:51;;;;;;;0.63;0.50;;;19.70;52.30;;;;;;5045648;28;20485;-61
2022/07/13 11:14:43;;;;;;;0.47;0.47;;;19.70;52.50;;;;;;5046890;28;20053;-60
2022/07/13 11:17:12;;;;;;;0.30;0.30;;;19.60;52.50;;;;;;5045341;28;20521;-61
2022/07/13 11:19:51;;;;;;;0.50;0.50;;;19.60;52.80;;;;;;5048633;28;20068;-61
2022/07/13 11:22:20;;;;;;;1.35;0.80;;;19.60;52.90;;;;;;5040874;28;20114;-61
2022/07/13 11:25:14;;;;;;;1.67;0.52;;;19.60;52.90;;;;;;5044101;28;20049;-61
2022/07/13 11:28:08;;;;;;;0.85;0.40;;;19.60;52.70;;;;;;5049723;28;20049;-60
2022/07/13 11:30:36;;;;;;;0.73;0.32;;;19.60;52.70;;;;;;5044642;28;20056;-61
2022/07/13 11:33:11;;;;;;;0.55;0.50;;;19.60;52.80;;;;;;5030776;28;20493;-60
2022/07/13 11:35:45;;;;;;;0.52;0.52;;;19.60;52.90;;;;;;5041703;28;20064;-59
2022/07/13 11:38:15;;;;;;;1.73;0.40;;;19.60;53.10;;;;;;5047188;28;20056;-60
2022/07/13 11:40:43;;;;;;;0.80;0.80;;;19.60;53.20;;;;;;5046537;28;20071;-59
2022/07/13 11:43:10;;;;;;;0.73;0.73;;;19.70;53.00;;;;;;5046978;28;20432;-60
2022/07/13 11:45:40;;;;;;;0.80;0.70;;;19.70;53.40;;;;;;5046328;28;20036;-58
2022/07/13 11:48:15;;;;;;;0.60;0.60;;;19.80;52.80;;;;;;5041081;28;20057;-60
2022/07/13 11:50:52;;;;;;;0.35;0.35;;;19.80;52.70;;;;;;5040859;28;20041;-59
2022/07/13 11:53:26;;;;;;;0.40;0.40;;;19.80;52.80;;;;;;5042472;28;20052;-59
2022/07/13 11:55:58;;;;;;;0.40;0.38;;;19.80;52.80;;;;;;5041661;28;20052;-60
2022/07/13 11:58:28;;;;;;;0.40;0.40;;;19.80;52.80;;;;;;5044485;28;20053;-59
2022/07/13 12:00:56;;;;;;;2.15;0.40;;;19.90;52.90;;;;;;5043005;28;20064;-59
2022/07/13 12:03:26;;;;;;;1.25;0.85;;;19.90;52.80;;;;;;5047161;28;20460;-59
2022/07/13 12:05:59;;;;;;;1.20;0.65;;;19.80;52.70;;;;;;5038610;28;20134;-60
2022/07/13 12:08:27;;;;;;;1.70;0.82;;;20.00;53.10;;;;;;5037102;28;20099;-60
2022/07/13 12:10:55;;;;;;;1.27;0.70;;;19.90;53.10;;;;;;5038750;28;20045;-59
2022/07/13 12:13:33;;;;;;;0.60;0.35;;;19.90;53.20;;;;;;5040830;28;20064;-58
2022/07/13 12:16:01;;;;;;;1.45;0.55;;;19.90;53.20;;;;;;5038585;28;20043;-61
2022/07/13 12:18:29;;;;;;;0.70;0.47;;;20.00;53.40;;;;;;5038574;28;20061;-59
2022/07/13 12:20:58;;;;;;;1.50;0.57;;;20.00;53.30;;;;;;5043775;28;20433;-59
2022/07/13 12:23:31;;;;;;;3.60;0.70;;;20.00;53.60;;;;;;5047347;28;20485;-59
2022/07/13 12:26:07;;;;;;;1.10;0.40;;;20.10;53.90;;;;;;5043034;28;20252;-63
2022/07/13 12:28:38;;;;;;;3.65;1.38;;;20.10;54.10;;;;;;5043447;28;20041;-61
2022/07/13 12:31:07;;;;;;;2.20;0.85;;;20.10;54.20;;;;;;5040301;28;20424;-60
2022/07/13 12:33:46;;;;;;;0.65;0.50;;;20.20;54.40;;;;;;5036313;28;20052;-60
2022/07/13 12:36:19;;;;;;;6.35;0.88;;;20.20;54.40;;;;;;5039259;28;20056;-59
2022/07/13 12:39:04;;;;;;;2.28;0.70;;;20.20;54.20;;;;;;5038549;28;20055;-59
2022/07/13 12:41:34;;;;;;;1.10;0.63;;;20.30;53.90;;;;;;5041977;28;20083;-60
2022/07/13 12:44:04;;;;;;;4.50;0.70;;;20.30;53.90;;;;;;5040497;28;20049;-60
2022/07/13 12:46:46;;;;;;;1.05;0.40;;;20.30;53.50;;;;;;5044631;28;20079;-62
2022/07/13 12:49:13;;;;;;;0.50;0.50;;;20.40;53.20;;;;;;5040864;28;20272;-60
2022/07/13 12:51:52;;;;;;;2.83;0.57;;;20.50;53.30;;;;;;5041090;28;20073;-60
2022/07/13 12:54:42;;;;;;;1.58;0.50;;;20.50;53.10;;;;;;5037674;28;20052;-59
2022/07/13 12:57:11;;;;;;;1.02;0.43;;;20.60;53.20;;;;;;5043595;28;20401;-59
2022/07/13 12:59:39;;;;;;;0.50;0.50;;;20.60;53.40;;;;;;5034128;28;20041;-60
2022/07/13 13:02:07;;;;;;;0.90;0.30;;;20.60;53.40;;;;;;5040755;28;20053;-59
2022/07/13 13:04:34;;;;;;;1.85;0.57;;;20.60;53.70;;;;;;5035529;28;20076;-60
2022/07/13 13:07:02;;;;;;;3.30;0.60;;;20.70;53.80;;;;;;5028748;28;20460;-60
2022/07/13 13:09:30;;;;;;;0.98;0.30;;;20.70;53.70;;;;;;5036484;28;20123;-60